sensor_id;sensor_type;location;lat;lon;timestamp;P1;durP1;ratioP1;P2;durP2;ratioP2
2848;SDS011;59355;52.416;13.412;2022-08-19T00:02:19;21.07;;;19.30;;
2848;SDS011;59355;52.416;13.412;2022-08-19T00:05:06;21.17;;;19.37;;
2848;SDS011;59355;52.416;13.412;2022-08-19T00:07:53;20.60;;;18.90;;
2848;SDS011;59355;52.416;13.412;2022-08-19T00:10:39;19.43;;;17.83;;
2848;SDS011;59355;52.416;13.412;2022-08-19T00:13:26;20.97;;;19.17;;
2848;SDS011;59355;52.416;13.412;2022-08-19T00:16:14;18.83;;;17.30;;
2848;SDS011;59355;52.416;13.412;2022-08-19T00:19:02;17.60;;;16.20;;
2848;SDS011;59355;52.416;13.412;2022-08-19T00:21:49;18.17;;;16.50;;
2848;SDS011;59355;52.416;13.412;2022-08-19T00:24:36;16.87;;;15.50;;
2848;SDS011;59355;52.416;13.412;2022-08-19T00:27:24;17.60;;;16.10;;
2848;SDS011;59355;52.416;13.412;2022-08-19T00:30:10;17.30;;;15.47;;
2848;SDS011;59355;52.416;13.412;2022-08-19T00:32:57;18.30;;;16.80;;
2848;SDS011;59355;52.416;13.412;2022-08-19T00:35:44;19.60;;;17.80;;
2848;SDS011;59355;52.416;13.412;2022-08-19T00:38:30;18.50;;;16.90;;
2848;SDS011;59355;52.416;13.412;2022-08-19T00:41:18;21.00;;;19.20;;
2848;SDS011;59355;52.416;13.412;2022-08-19T00:44:08;20.10;;;18.33;;
2848;SDS011;59355;52.416;13.412;2022-08-19T00:46:59;18.70;;;17.00;;
2848;SDS011;59355;52.416;13.412;2022-08-19T00:49:54;21.30;;;19.37;;
2848;SDS011;59355;52.416;13.412;2022-08-19T00:52:43;21.63;;;19.73;;
2848;SDS011;59355;52.416;13.412;2022-08-19T00:55:32;19.83;;;18.03;;
2848;SDS011;59355;52.416;13.412;2022-08-19T00:58:19;21.07;;;19.33;;
2848;SDS011;59355;52.416;13.412;2022-08-19T01:01:07;21.20;;;19.17;;
2848;SDS011;59355;52.416;13.412;2022-08-19T01:03:54;21.90;;;19.97;;
2848;SDS011;59355;52.416;13.412;2022-08-19T01:06:40;22.37;;;20.17;;
2848;SDS011;59355;52.416;13.412;2022-08-19T01:09:28;21.73;;;19.70;;
2848;SDS011;59355;52.416;13.412;2022-08-19T01:12:26;21.83;;;19.73;;
2848;SDS011;59355;52.416;13.412;2022-08-19T01:15:13;23.17;;;20.67;;
2848;SDS011;59355;52.416;13.412;2022-08-19T01:18:10;22.63;;;20.77;;
2848;SDS011;59355;52.416;13.412;2022-08-19T01:21:00;24.90;;;22.70;;
2848;SDS011;59355;52.416;13.412;2022-08-19T01:23:51;22.53;;;20.63;;
2848;SDS011;59355;52.416;13.412;2022-08-19T01:26:39;22.93;;;20.70;;
2848;SDS011;59355;52.416;13.412;2022-08-19T01:29:28;25.53;;;23.23;;
2848;SDS011;59355;52.416;13.412;2022-08-19T01:32:15;22.60;;;20.50;;
2848;SDS011;59355;52.416;13.412;2022-08-19T01:35:05;24.00;;;21.60;;
2848;SDS011;59355;52.416;13.412;2022-08-19T01:37:54;24.90;;;22.60;;
2848;SDS011;59355;52.416;13.412;2022-08-19T01:40:41;25.27;;;22.90;;
2848;SDS011;59355;52.416;13.412;2022-08-19T01:43:28;26.03;;;23.30;;
2848;SDS011;59355;52.416;13.412;2022-08-19T01:46:14;26.93;;;24.40;;
2848;SDS011;59355;52.416;13.412;2022-08-19T01:49:01;28.17;;;25.40;;
2848;SDS011;59355;52.416;13.412;2022-08-19T01:51:50;27.90;;;25.40;;
2848;SDS011;59355;52.416;13.412;2022-08-19T01:54:36;28.27;;;25.73;;
2848;SDS011;59355;52.416;13.412;2022-08-19T01:57:22;29.30;;;26.50;;
2848;SDS011;59355;52.416;13.412;2022-08-19T02:00:10;28.80;;;26.00;;
2848;SDS011;59355;52.416;13.412;2022-08-19T02:02:59;27.03;;;24.20;;
2848;SDS011;59355;52.416;13.412;2022-08-19T02:05:46;28.77;;;25.97;;
2848;SDS011;59355;52.416;13.412;2022-08-19T02:08:33;28.30;;;25.30;;
2848;SDS011;59355;52.416;13.412;2022-08-19T02:11:23;29.40;;;26.50;;
2848;SDS011;59355;52.416;13.412;2022-08-19T02:14:12;30.07;;;27.20;;
2848;SDS011;59355;52.416;13.412;2022-08-19T02:16:59;30.27;;;27.40;;
2848;SDS011;59355;52.416;13.412;2022-08-19T02:19:45;29.57;;;26.87;;
2848;SDS011;59355;52.416;13.412;2022-08-19T02:22:32;31.30;;;28.03;;
2848;SDS011;59355;52.416;13.412;2022-08-19T02:25:18;29.37;;;26.77;;
2848;SDS011;59355;52.416;13.412;2022-08-19T02:28:05;31.13;;;28.13;;
2848;SDS011;59355;52.416;13.412;2022-08-19T02:30:51;29.87;;;27.03;;
2848;SDS011;59355;52.416;13.412;2022-08-19T02:33:37;30.97;;;27.93;;
2848;SDS011;59355;52.416;13.412;2022-08-19T02:36:25;29.50;;;26.50;;
2848;SDS011;59355;52.416;13.412;2022-08-19T02:39:11;30.70;;;27.70;;
2848;SDS011;59355;52.416;13.412;2022-08-19T02:41:57;29.10;;;26.37;;
2848;SDS011;59355;52.416;13.412;2022-08-19T02:44:45;27.07;;;24.67;;
2848;SDS011;59355;52.416;13.412;2022-08-19T02:47:33;29.40;;;26.60;;
2848;SDS011;59355;52.416;13.412;2022-08-19T02:50:22;27.13;;;24.40;;
2848;SDS011;59355;52.416;13.412;2022-08-19T02:53:11;24.97;;;22.50;;
2848;SDS011;59355;52.416;13.412;2022-08-19T02:55:57;25.80;;;23.40;;
2848;SDS011;59355;52.416;13.412;2022-08-19T02:58:44;25.87;;;23.47;;
2848;SDS011;59355;52.416;13.412;2022-08-19T03:01:31;26.13;;;23.73;;
2848;SDS011;59355;52.416;13.412;2022-08-19T03:04:18;25.97;;;23.57;;
2848;SDS011;59355;52.416;13.412;2022-08-19T03:07:05;25.30;;;22.80;;
2848;SDS011;59355;52.416;13.412;2022-08-19T03:09:52;25.93;;;23.60;;
2848;SDS011;59355;52.416;13.412;2022-08-19T03:12:41;26.47;;;24.30;;
2848;SDS011;59355;52.416;13.412;2022-08-19T03:15:28;26.87;;;24.47;;
2848;SDS011;59355;52.416;13.412;2022-08-19T03:18:15;25.97;;;23.73;;
2848;SDS011;59355;52.416;13.412;2022-08-19T03:21:02;27.50;;;24.90;;
2848;SDS011;59355;52.416;13.412;2022-08-19T03:23:49;26.27;;;23.67;;
2848;SDS011;59355;52.416;13.412;2022-08-19T03:26:41;32.47;;;29.43;;
2848;SDS011;59355;52.416;13.412;2022-08-19T03:29:33;32.87;;;29.60;;
2848;SDS011;59355;52.416;13.412;2022-08-19T03:32:25;33.70;;;30.60;;
2848;SDS011;59355;52.416;13.412;2022-08-19T03:35:11;31.33;;;28.30;;
2848;SDS011;59355;52.416;13.412;2022-08-19T03:37:58;32.50;;;29.50;;
2848;SDS011;59355;52.416;13.412;2022-08-19T03:40:46;31.13;;;28.13;;
2848;SDS011;59355;52.416;13.412;2022-08-19T03:43:36;31.23;;;28.37;;
2848;SDS011;59355;52.416;13.412;2022-08-19T03:46:24;28.50;;;25.57;;
2848;SDS011;59355;52.416;13.412;2022-08-19T03:49:12;29.00;;;26.37;;
2848;SDS011;59355;52.416;13.412;2022-08-19T03:51:59;27.67;;;25.07;;
2848;SDS011;59355;52.416;13.412;2022-08-19T03:54:46;28.23;;;25.73;;
2848;SDS011;59355;52.416;13.412;2022-08-19T03:57:33;28.53;;;25.90;;
2848;SDS011;59355;52.416;13.412;2022-08-19T04:00:20;25.87;;;23.47;;
2848;SDS011;59355;52.416;13.412;2022-08-19T04:03:08;29.27;;;26.63;;
2848;SDS011;59355;52.416;13.412;2022-08-19T04:05:54;30.20;;;27.20;;
2848;SDS011;59355;52.416;13.412;2022-08-19T04:08:42;28.77;;;25.97;;
2848;SDS011;59355;52.416;13.412;2022-08-19T04:11:30;27.47;;;24.97;;
2848;SDS011;59355;52.416;13.412;2022-08-19T04:14:18;28.03;;;25.50;;
2848;SDS011;59355;52.416;13.412;2022-08-19T04:17:06;27.93;;;25.30;;
2848;SDS011;59355;52.416;13.412;2022-08-19T04:19:53;27.73;;;25.30;;
2848;SDS011;59355;52.416;13.412;2022-08-19T04:22:41;27.27;;;24.80;;
2848;SDS011;59355;52.416;13.412;2022-08-19T04:25:27;25.90;;;23.70;;
2848;SDS011;59355;52.416;13.412;2022-08-19T04:28:14;27.80;;;25.20;;
2848;SDS011;59355;52.416;13.412;2022-08-19T04:31:02;25.07;;;22.87;;
2848;SDS011;59355;52.416;13.412;2022-08-19T04:33:52;24.83;;;22.63;;
2848;SDS011;59355;52.416;13.412;2022-08-19T04:36:42;28.37;;;25.87;;
2848;SDS011;59355;52.416;13.412;2022-08-19T04:39:30;27.20;;;25.00;;
2848;SDS011;59355;52.416;13.412;2022-08-19T04:42:48;28.93;;;26.47;;
2848;SDS011;59355;52.416;13.412;2022-08-19T04:45:35;25.90;;;23.63;;
2848;SDS011;59355;52.416;13.412;2022-08-19T04:48:22;26.57;;;24.07;;
2848;SDS011;59355;52.416;13.412;2022-08-19T04:51:11;25.70;;;23.50;;
2848;SDS011;59355;52.416;13.412;2022-08-19T04:54:00;26.53;;;24.13;;
2848;SDS011;59355;52.416;13.412;2022-08-19T04:56:48;24.90;;;22.90;;
2848;SDS011;59355;52.416;13.412;2022-08-19T04:59:36;24.30;;;22.10;;
2848;SDS011;59355;52.416;13.412;2022-08-19T05:02:23;25.63;;;23.37;;
2848;SDS011;59355;52.416;13.412;2022-08-19T05:05:10;24.00;;;22.00;;
2848;SDS011;59355;52.416;13.412;2022-08-19T05:07:56;24.00;;;22.00;;
2848;SDS011;59355;52.416;13.412;2022-08-19T05:10:43;22.87;;;20.80;;
2848;SDS011;59355;52.416;13.412;2022-08-19T05:13:30;22.50;;;20.53;;
2848;SDS011;59355;52.416;13.412;2022-08-19T05:16:18;22.17;;;20.27;;
2848;SDS011;59355;52.416;13.412;2022-08-19T05:19:06;21.10;;;19.20;;
2848;SDS011;59355;52.416;13.412;2022-08-19T05:22:11;24.00;;;21.93;;
2848;SDS011;59355;52.416;13.412;2022-08-19T05:25:17;23.17;;;21.30;;
2848;SDS011;59355;52.416;13.412;2022-08-19T05:28:05;21.57;;;19.77;;
2848;SDS011;59355;52.416;13.412;2022-08-19T05:30:51;21.90;;;20.00;;
2848;SDS011;59355;52.416;13.412;2022-08-19T05:33:37;21.27;;;19.57;;
2848;SDS011;59355;52.416;13.412;2022-08-19T05:36:26;20.63;;;18.93;;
2848;SDS011;59355;52.416;13.412;2022-08-19T05:39:14;21.67;;;19.87;;
2848;SDS011;59355;52.416;13.412;2022-08-19T05:42:04;21.37;;;19.43;;
2848;SDS011;59355;52.416;13.412;2022-08-19T05:44:53;20.80;;;19.10;;
2848;SDS011;59355;52.416;13.412;2022-08-19T05:47:39;19.80;;;18.20;;
2848;SDS011;59355;52.416;13.412;2022-08-19T05:50:25;20.37;;;18.67;;
2848;SDS011;59355;52.416;13.412;2022-08-19T05:53:12;19.40;;;17.80;;
2848;SDS011;59355;52.416;13.412;2022-08-19T05:56:03;21.17;;;19.33;;
2848;SDS011;59355;52.416;13.412;2022-08-19T05:58:50;20.80;;;19.10;;
2848;SDS011;59355;52.416;13.412;2022-08-19T06:01:39;21.30;;;19.23;;
2848;SDS011;59355;52.416;13.412;2022-08-19T06:04:26;20.57;;;18.87;;
2848;SDS011;59355;52.416;13.412;2022-08-19T06:07:13;20.47;;;18.67;;
2848;SDS011;59355;52.416;13.412;2022-08-19T06:10:01;21.27;;;19.47;;
2848;SDS011;59355;52.416;13.412;2022-08-19T06:12:48;24.70;;;19.67;;
2848;SDS011;59355;52.416;13.412;2022-08-19T06:15:35;19.97;;;18.27;;
2848;SDS011;59355;52.416;13.412;2022-08-19T06:18:21;21.47;;;19.43;;
2848;SDS011;59355;52.416;13.412;2022-08-19T06:21:07;20.17;;;18.40;;
2848;SDS011;59355;52.416;13.412;2022-08-19T06:23:54;22.73;;;20.83;;
2848;SDS011;59355;52.416;13.412;2022-08-19T06:26:42;21.90;;;19.97;;
2848;SDS011;59355;52.416;13.412;2022-08-19T06:29:30;21.03;;;19.23;;
2848;SDS011;59355;52.416;13.412;2022-08-19T06:32:17;21.53;;;19.53;;
2848;SDS011;59355;52.416;13.412;2022-08-19T06:35:04;19.80;;;18.20;;
2848;SDS011;59355;52.416;13.412;2022-08-19T06:37:53;20.23;;;18.73;;
2848;SDS011;59355;52.416;13.412;2022-08-19T06:40:39;20.93;;;19.00;;
2848;SDS011;59355;52.416;13.412;2022-08-19T06:43:26;20.97;;;19.27;;
2848;SDS011;59355;52.416;13.412;2022-08-19T06:46:13;21.87;;;20.07;;
2848;SDS011;59355;52.416;13.412;2022-08-19T06:49:00;21.53;;;19.77;;
2848;SDS011;59355;52.416;13.412;2022-08-19T06:51:47;22.53;;;20.73;;
2848;SDS011;59355;52.416;13.412;2022-08-19T06:54:35;21.23;;;19.43;;
2848;SDS011;59355;52.416;13.412;2022-08-19T06:57:22;20.53;;;18.90;;
2848;SDS011;59355;52.416;13.412;2022-08-19T07:00:09;21.23;;;19.53;;
2848;SDS011;59355;52.416;13.412;2022-08-19T07:02:58;22.20;;;20.10;;
2848;SDS011;59355;52.416;13.412;2022-08-19T07:05:46;19.80;;;18.20;;
2848;SDS011;59355;52.416;13.412;2022-08-19T07:08:32;22.03;;;20.23;;
2848;SDS011;59355;52.416;13.412;2022-08-19T07:11:19;20.00;;;18.10;;
2848;SDS011;59355;52.416;13.412;2022-08-19T07:14:06;22.07;;;20.20;;
2848;SDS011;59355;52.416;13.412;2022-08-19T07:16:54;19.93;;;18.23;;
2848;SDS011;59355;52.416;13.412;2022-08-19T07:19:41;21.50;;;19.60;;
2848;SDS011;59355;52.416;13.412;2022-08-19T07:22:28;21.50;;;19.70;;
2848;SDS011;59355;52.416;13.412;2022-08-19T07:25:15;21.57;;;19.77;;
2848;SDS011;59355;52.416;13.412;2022-08-19T07:28:03;20.90;;;19.30;;
2848;SDS011;59355;52.416;13.412;2022-08-19T07:30:50;23.97;;;21.97;;
2848;SDS011;59355;52.416;13.412;2022-08-19T07:33:36;21.20;;;19.30;;
2848;SDS011;59355;52.416;13.412;2022-08-19T07:36:25;21.90;;;19.97;;
2848;SDS011;59355;52.416;13.412;2022-08-19T07:39:27;21.83;;;19.80;;
2848;SDS011;59355;52.416;13.412;2022-08-19T07:42:15;21.20;;;19.50;;
2848;SDS011;59355;52.416;13.412;2022-08-19T07:45:06;21.93;;;20.13;;
2848;SDS011;59355;52.416;13.412;2022-08-19T07:47:53;24.03;;;22.03;;
2848;SDS011;59355;52.416;13.412;2022-08-19T07:50:40;22.47;;;20.67;;
2848;SDS011;59355;52.416;13.412;2022-08-19T07:53:26;22.37;;;20.47;;
2848;SDS011;59355;52.416;13.412;2022-08-19T07:56:13;21.30;;;19.30;;
2848;SDS011;59355;52.416;13.412;2022-08-19T07:59:00;23.53;;;21.40;;
2848;SDS011;59355;52.416;13.412;2022-08-19T08:01:46;21.23;;;19.37;;
2848;SDS011;59355;52.416;13.412;2022-08-19T08:04:33;24.97;;;21.00;;
2848;SDS011;59355;52.416;13.412;2022-08-19T08:07:38;23.40;;;21.10;;
2848;SDS011;59355;52.416;13.412;2022-08-19T08:10:59;21.80;;;20.00;;
2848;SDS011;59355;52.416;13.412;2022-08-19T08:13:46;22.83;;;20.93;;
2848;SDS011;59355;52.416;13.412;2022-08-19T08:16:37;23.40;;;21.30;;
2848;SDS011;59355;52.416;13.412;2022-08-19T08:19:25;22.10;;;20.40;;
2848;SDS011;59355;52.416;13.412;2022-08-19T08:22:14;23.20;;;21.30;;
2848;SDS011;59355;52.416;13.412;2022-08-19T08:25:21;22.73;;;20.93;;
2848;SDS011;59355;52.416;13.412;2022-08-19T08:28:08;23.00;;;20.97;;
2848;SDS011;59355;52.416;13.412;2022-08-19T08:30:56;22.50;;;20.70;;
2848;SDS011;59355;52.416;13.412;2022-08-19T08:33:43;23.33;;;21.37;;
2848;SDS011;59355;52.416;13.412;2022-08-19T08:36:29;23.63;;;21.60;;
2848;SDS011;59355;52.416;13.412;2022-08-19T08:39:20;24.90;;;22.70;;
2848;SDS011;59355;52.416;13.412;2022-08-19T08:42:08;25.23;;;23.13;;
2848;SDS011;59355;52.416;13.412;2022-08-19T08:45:06;23.30;;;21.40;;
2848;SDS011;59355;52.416;13.412;2022-08-19T08:48:03;24.37;;;22.37;;
2848;SDS011;59355;52.416;13.412;2022-08-19T08:50:59;22.47;;;20.77;;
2848;SDS011;59355;52.416;13.412;2022-08-19T08:53:50;23.67;;;21.60;;
2848;SDS011;59355;52.416;13.412;2022-08-19T08:56:39;25.07;;;22.97;;
2848;SDS011;59355;52.416;13.412;2022-08-19T08:59:28;25.57;;;23.50;;
2848;SDS011;59355;52.416;13.412;2022-08-19T09:02:18;24.63;;;22.60;;
2848;SDS011;59355;52.416;13.412;2022-08-19T09:05:04;27.50;;;25.00;;
2848;SDS011;59355;52.416;13.412;2022-08-19T09:08:01;23.80;;;21.70;;
2848;SDS011;59355;52.416;13.412;2022-08-19T09:11:04;25.67;;;23.57;;
2848;SDS011;59355;52.416;13.412;2022-08-19T09:16:43;26.00;;;23.80;;
2848;SDS011;59355;52.416;13.412;2022-08-19T09:19:29;27.73;;;25.10;;
2848;SDS011;59355;52.416;13.412;2022-08-19T09:22:16;25.53;;;23.27;;
2848;SDS011;59355;52.416;13.412;2022-08-19T09:25:03;25.10;;;22.97;;
2848;SDS011;59355;52.416;13.412;2022-08-19T09:27:51;24.20;;;22.10;;
2848;SDS011;59355;52.416;13.412;2022-08-19T09:30:40;26.10;;;23.70;;
2848;SDS011;59355;52.416;13.412;2022-08-19T09:33:26;24.43;;;22.43;;
2848;SDS011;59355;52.416;13.412;2022-08-19T09:36:14;28.03;;;25.43;;
2848;SDS011;59355;52.416;13.412;2022-08-19T09:39:03;26.20;;;24.00;;
2848;SDS011;59355;52.416;13.412;2022-08-19T09:41:49;25.40;;;23.07;;
2848;SDS011;59355;52.416;13.412;2022-08-19T09:44:36;26.17;;;23.77;;
2848;SDS011;59355;52.416;13.412;2022-08-19T09:47:22;24.70;;;22.70;;
2848;SDS011;59355;52.416;13.412;2022-08-19T09:50:10;26.80;;;24.40;;
2848;SDS011;59355;52.416;13.412;2022-08-19T09:52:57;26.77;;;24.50;;
2848;SDS011;59355;52.416;13.412;2022-08-19T09:55:44;25.57;;;23.47;;
2848;SDS011;59355;52.416;13.412;2022-08-19T09:58:31;25.57;;;23.47;;
2848;SDS011;59355;52.416;13.412;2022-08-19T10:01:19;28.30;;;25.80;;
2848;SDS011;59355;52.416;13.412;2022-08-19T10:04:08;25.70;;;23.70;;
2848;SDS011;59355;52.416;13.412;2022-08-19T10:06:55;23.67;;;21.57;;
2848;SDS011;59355;52.416;13.412;2022-08-19T10:09:42;25.10;;;22.57;;
2848;SDS011;59355;52.416;13.412;2022-08-19T10:12:28;25.43;;;23.27;;
2848;SDS011;59355;52.416;13.412;2022-08-19T10:15:14;24.90;;;22.87;;
2848;SDS011;59355;52.416;13.412;2022-08-19T10:18:01;22.63;;;20.90;;
2848;SDS011;59355;52.416;13.412;2022-08-19T10:20:48;23.90;;;21.80;;
2848;SDS011;59355;52.416;13.412;2022-08-19T10:23:37;23.20;;;21.30;;
2848;SDS011;59355;52.416;13.412;2022-08-19T10:26:25;23.17;;;21.23;;
2848;SDS011;59355;52.416;13.412;2022-08-19T10:29:15;24.23;;;21.97;;
2848;SDS011;59355;52.416;13.412;2022-08-19T10:32:02;24.03;;;21.97;;
2848;SDS011;59355;52.416;13.412;2022-08-19T10:34:51;24.53;;;22.60;;
2848;SDS011;59355;52.416;13.412;2022-08-19T10:37:37;22.87;;;20.87;;
2848;SDS011;59355;52.416;13.412;2022-08-19T10:40:25;23.37;;;21.47;;
2848;SDS011;59355;52.416;13.412;2022-08-19T10:43:12;23.70;;;21.60;;
2848;SDS011;59355;52.416;13.412;2022-08-19T10:45:58;23.33;;;21.33;;
2848;SDS011;59355;52.416;13.412;2022-08-19T10:48:45;24.00;;;21.97;;
2848;SDS011;59355;52.416;13.412;2022-08-19T10:51:31;25.10;;;22.77;;
2848;SDS011;59355;52.416;13.412;2022-08-19T10:54:36;24.20;;;22.10;;
2848;SDS011;59355;52.416;13.412;2022-08-19T10:57:41;23.90;;;21.90;;
2848;SDS011;59355;52.416;13.412;2022-08-19T11:00:27;23.70;;;21.60;;
2848;SDS011;59355;52.416;13.412;2022-08-19T11:03:14;23.73;;;21.63;;
2848;SDS011;59355;52.416;13.412;2022-08-19T11:06:05;24.30;;;22.17;;
2848;SDS011;59355;52.416;13.412;2022-08-19T11:08:53;22.60;;;20.80;;
2848;SDS011;59355;52.416;13.412;2022-08-19T11:11:40;23.53;;;21.53;;
2848;SDS011;59355;52.416;13.412;2022-08-19T11:14:27;23.10;;;21.20;;
2848;SDS011;59355;52.416;13.412;2022-08-19T11:17:16;21.30;;;19.50;;
2848;SDS011;59355;52.416;13.412;2022-08-19T11:20:02;20.80;;;19.10;;
2848;SDS011;59355;52.416;13.412;2022-08-19T11:22:51;23.17;;;20.97;;
2848;SDS011;59355;52.416;13.412;2022-08-19T11:25:39;22.07;;;20.10;;
2848;SDS011;59355;52.416;13.412;2022-08-19T11:28:25;22.13;;;20.40;;
2848;SDS011;59355;52.416;13.412;2022-08-19T11:31:12;22.23;;;20.33;;
2848;SDS011;59355;52.416;13.412;2022-08-19T11:34:03;21.77;;;20.00;;
2848;SDS011;59355;52.416;13.412;2022-08-19T11:36:52;20.10;;;18.40;;
2848;SDS011;59355;52.416;13.412;2022-08-19T11:39:40;20.17;;;18.33;;
2848;SDS011;59355;52.416;13.412;2022-08-19T11:42:26;19.33;;;17.73;;
2848;SDS011;59355;52.416;13.412;2022-08-19T11:45:31;20.20;;;18.53;;
2848;SDS011;59355;52.416;13.412;2022-08-19T11:48:17;20.43;;;18.43;;
2848;SDS011;59355;52.416;13.412;2022-08-19T11:51:12;19.40;;;17.80;;
2848;SDS011;59355;52.416;13.412;2022-08-19T11:54:00;20.43;;;18.60;;
2848;SDS011;59355;52.416;13.412;2022-08-19T11:56:46;21.03;;;19.23;;
2848;SDS011;59355;52.416;13.412;2022-08-19T11:59:34;20.40;;;15.90;;
2848;SDS011;59355;52.416;13.412;2022-08-19T12:02:20;18.27;;;16.73;;
2848;SDS011;59355;52.416;13.412;2022-08-19T12:05:07;18.73;;;17.03;;
2848;SDS011;59355;52.416;13.412;2022-08-19T12:07:54;18.07;;;16.57;;
2848;SDS011;59355;52.416;13.412;2022-08-19T12:10:41;16.67;;;15.17;;
2848;SDS011;59355;52.416;13.412;2022-08-19T12:13:28;17.80;;;16.40;;
2848;SDS011;59355;52.416;13.412;2022-08-19T12:16:26;15.70;;;14.40;;
2848;SDS011;59355;52.416;13.412;2022-08-19T12:19:13;17.63;;;16.03;;
2848;SDS011;59355;52.416;13.412;2022-08-19T12:21:59;16.90;;;15.30;;
2848;SDS011;59355;52.416;13.412;2022-08-19T12:24:48;17.13;;;15.57;;
2848;SDS011;59355;52.416;13.412;2022-08-19T12:27:36;16.00;;;14.80;;
2848;SDS011;59355;52.416;13.412;2022-08-19T12:30:24;16.60;;;14.93;;
2848;SDS011;59355;52.416;13.412;2022-08-19T12:33:11;14.90;;;13.70;;
2848;SDS011;59355;52.416;13.412;2022-08-19T12:36:03;16.17;;;14.93;;
2848;SDS011;59355;52.416;13.412;2022-08-19T12:38:51;15.27;;;14.07;;
2848;SDS011;59355;52.416;13.412;2022-08-19T12:41:38;14.10;;;13.00;;
2848;SDS011;59355;52.416;13.412;2022-08-19T12:44:25;14.70;;;13.50;;
2848;SDS011;59355;52.416;13.412;2022-08-19T12:47:11;14.57;;;13.47;;
2848;SDS011;59355;52.416;13.412;2022-08-19T12:50:02;14.40;;;13.30;;
2848;SDS011;59355;52.416;13.412;2022-08-19T12:52:50;13.77;;;12.57;;
2848;SDS011;59355;52.416;13.412;2022-08-19T12:55:36;14.50;;;13.30;;
2848;SDS011;59355;52.416;13.412;2022-08-19T12:58:22;15.17;;;13.67;;
2848;SDS011;59355;52.416;13.412;2022-08-19T13:01:10;12.53;;;11.63;;
2848;SDS011;59355;52.416;13.412;2022-08-19T13:03:58;12.93;;;11.80;;
2848;SDS011;59355;52.416;13.412;2022-08-19T13:06:45;13.83;;;12.63;;
2848;SDS011;59355;52.416;13.412;2022-08-19T13:09:32;13.70;;;12.40;;
2848;SDS011;59355;52.416;13.412;2022-08-19T13:12:19;14.00;;;12.77;;
2848;SDS011;59355;52.416;13.412;2022-08-19T13:15:06;13.13;;;12.03;;
2848;SDS011;59355;52.416;13.412;2022-08-19T13:17:54;13.37;;;12.20;;
2848;SDS011;59355;52.416;13.412;2022-08-19T13:20:41;12.90;;;11.80;;
2848;SDS011;59355;52.416;13.412;2022-08-19T13:23:27;12.67;;;11.67;;
2848;SDS011;59355;52.416;13.412;2022-08-19T13:26:14;13.03;;;11.93;;
2848;SDS011;59355;52.416;13.412;2022-08-19T13:29:00;12.67;;;11.57;;
2848;SDS011;59355;52.416;13.412;2022-08-19T13:32:05;13.50;;;12.30;;
2848;SDS011;59355;52.416;13.412;2022-08-19T13:35:10;13.77;;;12.57;;
2848;SDS011;59355;52.416;13.412;2022-08-19T13:37:56;14.37;;;13.00;;
2848;SDS011;59355;52.416;13.412;2022-08-19T13:40:43;15.37;;;14.07;;
2848;SDS011;59355;52.416;13.412;2022-08-19T13:43:30;14.17;;;12.70;;
2848;SDS011;59355;52.416;13.412;2022-08-19T13:46:16;14.57;;;13.47;;
2848;SDS011;59355;52.416;13.412;2022-08-19T13:49:03;16.13;;;14.63;;
2848;SDS011;59355;52.416;13.412;2022-08-19T13:51:49;14.00;;;12.90;;
2848;SDS011;59355;52.416;13.412;2022-08-19T13:54:36;15.53;;;14.03;;
2848;SDS011;59355;52.416;13.412;2022-08-19T13:57:22;15.73;;;14.53;;
2848;SDS011;59355;52.416;13.412;2022-08-19T14:00:11;16.50;;;15.20;;
2848;SDS011;59355;52.416;13.412;2022-08-19T14:03:00;15.13;;;13.83;;
2848;SDS011;59355;52.416;13.412;2022-08-19T14:05:46;16.07;;;14.77;;
2848;SDS011;59355;52.416;13.412;2022-08-19T14:08:32;16.13;;;14.73;;
2848;SDS011;59355;52.416;13.412;2022-08-19T14:11:19;15.37;;;14.03;;
2848;SDS011;59355;52.416;13.412;2022-08-19T14:14:05;15.80;;;14.53;;
2848;SDS011;59355;52.416;13.412;2022-08-19T14:16:52;15.67;;;14.43;;
2848;SDS011;59355;52.416;13.412;2022-08-19T14:19:38;14.50;;;13.20;;
2848;SDS011;59355;52.416;13.412;2022-08-19T14:22:25;15.10;;;13.70;;
2848;SDS011;59355;52.416;13.412;2022-08-19T14:25:13;15.43;;;14.13;;
2848;SDS011;59355;52.416;13.412;2022-08-19T14:28:01;15.47;;;14.20;;
2848;SDS011;59355;52.416;13.412;2022-08-19T14:30:47;15.00;;;13.13;;
2848;SDS011;59355;52.416;13.412;2022-08-19T14:33:34;15.27;;;13.97;;
2848;SDS011;59355;52.416;13.412;2022-08-19T14:36:20;14.47;;;13.10;;
2848;SDS011;59355;52.416;13.412;2022-08-19T14:39:07;15.37;;;14.03;;
2848;SDS011;59355;52.416;13.412;2022-08-19T14:41:55;15.43;;;14.03;;
2848;SDS011;59355;52.416;13.412;2022-08-19T14:44:42;15.77;;;14.17;;
2848;SDS011;59355;52.416;13.412;2022-08-19T14:47:29;14.53;;;13.33;;
2848;SDS011;59355;52.416;13.412;2022-08-19T14:50:15;14.57;;;13.37;;
2848;SDS011;59355;52.416;13.412;2022-08-19T14:53:06;14.27;;;13.17;;
2848;SDS011;59355;52.416;13.412;2022-08-19T14:55:53;14.43;;;12.87;;
2848;SDS011;59355;52.416;13.412;2022-08-19T14:58:40;14.23;;;13.07;;
2848;SDS011;59355;52.416;13.412;2022-08-19T15:01:27;13.13;;;12.00;;
2848;SDS011;59355;52.416;13.412;2022-08-19T15:04:14;14.90;;;13.70;;
2848;SDS011;59355;52.416;13.412;2022-08-19T15:07:00;14.50;;;13.40;;
2848;SDS011;59355;52.416;13.412;2022-08-19T15:09:49;14.53;;;13.27;;
2848;SDS011;59355;52.416;13.412;2022-08-19T15:12:36;14.83;;;13.60;;
2848;SDS011;59355;52.416;13.412;2022-08-19T15:15:25;13.80;;;12.70;;
2848;SDS011;59355;52.416;13.412;2022-08-19T15:18:13;14.87;;;13.70;;
2848;SDS011;59355;52.416;13.412;2022-08-19T15:21:00;14.37;;;13.07;;
2848;SDS011;59355;52.416;13.412;2022-08-19T15:23:47;15.30;;;13.97;;
2848;SDS011;59355;52.416;13.412;2022-08-19T15:26:35;14.60;;;13.30;;
2848;SDS011;59355;52.416;13.412;2022-08-19T15:29:21;18.17;;;16.50;;
2848;SDS011;59355;52.416;13.412;2022-08-19T15:32:10;18.47;;;16.87;;
2848;SDS011;59355;52.416;13.412;2022-08-19T15:34:56;17.70;;;16.20;;
2848;SDS011;59355;52.416;13.412;2022-08-19T15:37:42;20.60;;;18.80;;
2848;SDS011;59355;52.416;13.412;2022-08-19T15:40:29;19.13;;;17.50;;
2848;SDS011;59355;52.416;13.412;2022-08-19T15:43:16;18.53;;;17.03;;
2848;SDS011;59355;52.416;13.412;2022-08-19T15:46:04;18.60;;;16.97;;
2848;SDS011;59355;52.416;13.412;2022-08-19T15:48:50;17.67;;;16.27;;
2848;SDS011;59355;52.416;13.412;2022-08-19T15:51:38;17.60;;;16.20;;
2848;SDS011;59355;52.416;13.412;2022-08-19T15:54:27;19.53;;;18.00;;
2848;SDS011;59355;52.416;13.412;2022-08-19T15:57:13;18.00;;;16.60;;
2848;SDS011;59355;52.416;13.412;2022-08-19T16:00:06;17.83;;;16.43;;
2848;SDS011;59355;52.416;13.412;2022-08-19T16:03:12;19.03;;;17.47;;
2848;SDS011;59355;52.416;13.412;2022-08-19T16:06:18;16.60;;;15.20;;
2848;SDS011;59355;52.416;13.412;2022-08-19T16:09:10;19.13;;;17.30;;
2848;SDS011;59355;52.416;13.412;2022-08-19T16:11:58;17.20;;;15.90;;
2848;SDS011;59355;52.416;13.412;2022-08-19T16:14:46;18.03;;;16.50;;
2848;SDS011;59355;52.416;13.412;2022-08-19T16:17:33;15.50;;;14.10;;
2848;SDS011;59355;52.416;13.412;2022-08-19T16:20:20;16.40;;;15.00;;
2848;SDS011;59355;52.416;13.412;2022-08-19T16:23:07;14.90;;;13.77;;
2848;SDS011;59355;52.416;13.412;2022-08-19T16:25:53;14.83;;;13.63;;
2848;SDS011;59355;52.416;13.412;2022-08-19T16:28:39;16.40;;;15.10;;